63.0°F
Current conditions from King Hill
Updated every 5 minutes
 
  Thursday August 21, 2014

Station Historical Data
Daily Summary for April 27, 2011 Units:  English    Metric   Both
« Previous Day
Next Day »
Daily Weekly Monthly Yearly Custom
  High: Low: Average:
Temperature: 80.6 °F 54.9 °F 67.6 °F
Dew Point: 64.5 °F 52.1 °F 59.1 °F
Humidity: 96% 51% 76%
Wind Speed: 15.0mph 1.0mph 5.9mph
Wind Gust: 39.0mph - -
Wind- - SSW
Pressure: 29.89 in 29.62 in -
Precipitation: 0.42 in    
Historical Graphs
 
 
Tabular Data for April 27, 2011
Time Temperature Dew Point Pressure Wind Wind Speed Wind Gust Humidity Daily Rainfall
00:00 55.6 °F 54.2 °F 29.85 in SE 1.0 mph 3.0 mph 95% 1.38 in
00:05 55.6 °F 54.2 °F 29.85 in SE 1.0 mph 3.0 mph 95% 0.02 in
00:10 56.4 °F 55.0 °F 29.86 in South 2.0 mph 6.0 mph 95% 0.04 in
00:15 56.8 °F 55.7 °F 29.86 in South 4.0 mph 9.0 mph 96% 0.06 in
00:25 56.5 °F 55.4 °F 29.85 in SW 4.0 mph 7.0 mph 96% 0.12 in
00:30 56.4 °F 55.0 °F 29.85 in South 4.0 mph 9.0 mph 95% 0.14 in
00:35 56.2 °F 54.8 °F 29.84 in SSW 2.0 mph 9.0 mph 95% 0.16 in
00:40 56.1 °F 55.0 °F 29.84 in SSW 1.0 mph 5.0 mph 96% 0.18 in
00:45 56.1 °F 55.0 °F 29.84 in SW 3.0 mph 6.0 mph 96% 0.20 in
00:50 56.1 °F 55.0 °F 29.84 in SSW 4.0 mph 8.0 mph 96% 0.22 in
00:55 56.1 °F 55.0 °F 29.84 in SSW 4.0 mph 8.0 mph 96% 0.24 in
01:00 56.2 °F 55.1 °F 29.84 in SW 5.0 mph 10.0 mph 96% 0.25 in
01:05 56.2 °F 55.1 °F 29.84 in SSW 5.0 mph 10.0 mph 96% 0.26 in
01:10 56.3 °F 55.2 °F 29.83 in South 4.0 mph 8.0 mph 96% 0.28 in
01:15 56.5 °F 55.4 °F 29.84 in SW 4.0 mph 8.0 mph 96% 0.29 in
01:20 56.4 °F 55.3 °F 29.83 in SSW 5.0 mph 10.0 mph 96% 0.30 in
01:25 56.6 °F 55.5 °F 29.83 in South 6.0 mph 13.0 mph 96% 0.32 in
01:30 56.9 °F 55.8 °F 29.82 in South 6.0 mph 13.0 mph 96% 0.34 in
01:40 57.7 °F 56.6 °F 29.81 in South 7.0 mph 20.0 mph 96% 0.38 in
01:45 57.8 °F 56.7 °F 29.81 in SSW 3.0 mph 13.0 mph 96% 0.40 in
01:50 58.0 °F 56.9 °F 29.81 in South 5.0 mph 13.0 mph 96% 0.41 in
01:55 58.2 °F 56.8 °F 29.80 in South 4.0 mph 11.0 mph 95% 0.42 in
02:00 58.3 °F 56.9 °F 29.80 in South 5.0 mph 11.0 mph 95% 0.42 in
02:10 58.4 °F 57.0 °F 29.78 in SSE 1.0 mph 8.0 mph 95% 0.42 in
02:15 58.6 °F 57.2 °F 29.78 in South 4.0 mph 8.0 mph 95% 0.42 in
02:20 58.7 °F 57.3 °F 29.78 in South 3.0 mph 9.0 mph 95% 0.42 in
02:25 58.7 °F 57.0 °F 29.78 in Calm   9.0 mph 94% 0.42 in
02:30 58.5 °F 56.8 °F 29.78 in SW 1.0 mph 5.0 mph 94% 0.42 in
02:40 57.6 °F 55.6 °F 29.79 in Calm   6.0 mph 93% 0.42 in
02:45 57.5 °F 55.8 °F 29.80 in SW 1.0 mph 4.0 mph 94% 0.42 in
02:50 57.4 °F 55.7 °F 29.81 in SW 2.0 mph 5.0 mph 94% 0.42 in
02:55 57.5 °F 55.8 °F 29.81 in South 2.0 mph 6.0 mph 94% 0.42 in
03:00 57.5 °F 55.8 °F 29.81 in SW 1.0 mph 6.0 mph 94% 0.42 in
03:05 57.5 °F 55.8 °F 29.81 in SSW 3.0 mph 7.0 mph 94% 0.42 in
03:10 57.3 °F 55.6 °F 29.82 in SSW 3.0 mph 7.0 mph 94% 0.42 in
03:15 57.1 °F 55.1 °F 29.82 in SSW 4.0 mph 9.0 mph 93% 0.42 in
03:20 56.9 °F 54.9 °F 29.82 in SW 3.0 mph 9.0 mph 93% 0.42 in
03:25 56.4 °F 54.4 °F 29.83 in SSW 7.0 mph 10.0 mph 93% 0.42 in
03:30 55.9 °F 53.6 °F 29.82 in SSW 5.0 mph 10.0 mph 92% 0.42 in
03:40 55.1 °F 52.8 °F 29.82 in SSW 7.0 mph 12.0 mph 92% 0.42 in
03:45 54.9 °F 52.6 °F 29.82 in SSW 6.0 mph 12.0 mph 92% 0.42 in
03:50 55.0 °F 53.0 °F 29.82 in SSW 6.0 mph 12.0 mph 93% 0.42 in
03:55 55.1 °F 52.8 °F 29.82 in SSW 5.0 mph 12.0 mph 92% 0.42 in
04:05 55.3 °F 53.0 °F 29.82 in SSW 4.0 mph 14.0 mph 92% 0.42 in
04:10 55.4 °F 52.8 °F 29.82 in SSW 5.0 mph 12.0 mph 91% 0.42 in
04:15 55.3 °F 52.7 °F 29.82 in SSW 5.0 mph 12.0 mph 91% 0.42 in
04:20 55.4 °F 52.8 °F 29.82 in SSW 6.0 mph 10.0 mph 91% 0.42 in
04:25 55.5 °F 52.9 °F 29.81 in SSW 7.0 mph 11.0 mph 91% 0.42 in
04:30 55.5 °F 52.6 °F 29.81 in SSW 5.0 mph 11.0 mph 90% 0.42 in
04:35 55.5 °F 52.6 °F 29.80 in South 5.0 mph 12.0 mph 90% 0.42 in
04:40 55.8 °F 52.9 °F 29.80 in South 5.0 mph 12.0 mph 90% 0.42 in
04:45 55.9 °F 52.7 °F 29.79 in SSW 4.0 mph 12.0 mph 89% 0.42 in
04:50 56.3 °F 53.1 °F 29.79 in SSW 5.0 mph 10.0 mph 89% 0.42 in
04:55 56.3 °F 52.8 °F 29.80 in SW 4.0 mph 10.0 mph 88% 0.42 in
05:00 56.0 °F 52.8 °F 29.81 in SSW 3.0 mph 10.0 mph 89% 0.42 in
05:05 55.6 °F 52.4 °F 29.81 in SSW 1.0 mph 10.0 mph 89% 0.42 in
05:10 55.3 °F 52.1 °F 29.81 in SSW 1.0 mph 6.0 mph 89% 0.42 in
05:15 55.3 °F 52.4 °F 29.81 in SSW 3.0 mph 5.0 mph 90% 0.42 in
05:20 55.3 °F 52.7 °F 29.82 in SSW 4.0 mph 8.0 mph 91% 0.42 in
05:25 55.3 °F 52.4 °F 29.82 in SSW 3.0 mph 8.0 mph 90% 0.42 in
05:30 55.3 °F 52.7 °F 29.82 in SSW 3.0 mph 8.0 mph 91% 0.42 in
05:40 55.3 °F 52.7 °F 29.84 in SSW 4.0 mph 8.0 mph 91% 0.42 in
05:45 55.4 °F 53.1 °F 29.84 in SSW 5.0 mph 9.0 mph 92% 0.42 in
05:50 55.5 °F 53.2 °F 29.84 in SSW 5.0 mph 9.0 mph 92% 0.42 in
05:55 55.7 °F 53.4 °F 29.84 in SSW 5.0 mph 10.0 mph 92% 0.42 in
06:00 55.8 °F 53.5 °F 29.83 in South 5.0 mph 10.0 mph 92% 0.42 in
06:05 56.0 °F 53.7 °F 29.84 in SSW 5.0 mph 9.0 mph 92% 0.42 in
06:10 55.9 °F 53.3 °F 29.84 in SSW 5.0 mph 11.0 mph 91% 0.42 in
06:15 55.8 °F 53.2 °F 29.84 in SSW 4.0 mph 11.0 mph 91% 0.42 in
06:20 56.0 °F 53.7 °F 29.84 in SSW 3.0 mph 10.0 mph 92% 0.42 in
06:25 56.0 °F 53.7 °F 29.84 in South 4.0 mph 10.0 mph 92% 0.42 in
06:30 56.1 °F 53.8 °F 29.85 in SSW 4.0 mph 7.0 mph 92% 0.42 in
06:35 56.3 °F 54.0 °F 29.85 in SSW 4.0 mph 9.0 mph 92% 0.42 in
06:40 56.5 °F 54.2 °F 29.85 in SSW 5.0 mph 9.0 mph 92% 0.42 in
06:45 56.8 °F 54.5 °F 29.86 in SSW 4.0 mph 9.0 mph 92% 0.42 in
06:50 57.1 °F 54.8 °F 29.86 in SW 5.0 mph 8.0 mph 92% 0.42 in
06:55 57.3 °F 55.0 °F 29.86 in SSW 4.0 mph 9.0 mph 92% 0.42 in
07:00 57.5 °F 55.2 °F 29.86 in South 5.0 mph 9.0 mph 92% 0.42 in
07:05 58.0 °F 55.7 °F 29.86 in SSW 2.0 mph 9.0 mph 92% 0.42 in
07:10 58.3 °F 56.0 °F 29.86 in South 6.0 mph 12.0 mph 92% 0.42 in
07:15 58.7 °F 56.1 °F 29.85 in SSW 6.0 mph 12.0 mph 91% 0.42 in
07:20 59.0 °F 56.4 °F 29.85 in SSW 5.0 mph 12.0 mph 91% 0.42 in
07:25 59.3 °F 56.4 °F 29.85 in SSW 7.0 mph 13.0 mph 90% 0.42 in
07:30 59.6 °F 56.7 °F 29.86 in SSW 10.0 mph 16.0 mph 90% 0.42 in
07:35 59.9 °F 57.0 °F 29.86 in SSW 8.0 mph 16.0 mph 90% 0.42 in
07:40 60.2 °F 56.9 °F 29.86 in South 7.0 mph 15.0 mph 89% 0.42 in
07:45 60.4 °F 57.1 °F 29.86 in SSW 8.0 mph 16.0 mph 89% 0.42 in
07:50 60.5 °F 57.2 °F 29.86 in SSW 6.0 mph 16.0 mph 89% 0.42 in
07:55 60.7 °F 57.4 °F 29.87 in SSW 7.0 mph 15.0 mph 89% 0.42 in
08:00 60.9 °F 57.6 °F 29.87 in South 8.0 mph 15.0 mph 89% 0.42 in
08:05 61.1 °F 57.5 °F 29.87 in SSW 6.0 mph 15.0 mph 88% 0.42 in
08:10 61.2 °F 57.6 °F 29.87 in SSW 6.0 mph 14.0 mph 88% 0.42 in
08:15 61.4 °F 57.8 °F 29.88 in SSW 7.0 mph 15.0 mph 88% 0.42 in
08:20 61.8 °F 58.2 °F 29.88 in SSW 5.0 mph 15.0 mph 88% 0.42 in
08:25 62.0 °F 58.1 °F 29.88 in SSW 9.0 mph 17.0 mph 87% 0.42 in
08:30 62.1 °F 58.2 °F 29.88 in SSW 8.0 mph 22.0 mph 87% 0.42 in
08:35 62.3 °F 58.4 °F 29.88 in SSW 7.0 mph 22.0 mph 87% 0.42 in
08:40 62.5 °F 58.6 °F 29.88 in SW 7.0 mph 12.0 mph 87% 0.42 in
08:45 62.7 °F 58.8 °F 29.88 in SSW 9.0 mph 17.0 mph 87% 0.42 in
08:50 62.9 °F 59.0 °F 29.88 in SSW 6.0 mph 17.0 mph 87% 0.42 in
08:55 63.4 °F 59.5 °F 29.88 in SSW 6.0 mph 15.0 mph 87% 0.42 in
09:00 63.6 °F 59.7 °F 29.88 in SSW 6.0 mph 14.0 mph 87% 0.42 in
09:05 64.0 °F 59.7 °F 29.88 in SSW 7.0 mph 14.0 mph 86% 0.42 in
09:10 64.3 °F 60.0 °F 29.89 in SSW 6.0 mph 12.0 mph 86% 0.42 in
09:15 64.4 °F 59.5 °F 29.88 in SSW 9.0 mph 15.0 mph 84% 0.42 in
09:20 64.8 °F 59.9 °F 29.88 in South 8.0 mph 15.0 mph 84% 0.42 in
09:25 64.8 °F 59.5 °F 29.88 in South 10.0 mph 16.0 mph 83% 0.42 in
09:30 64.8 °F 59.9 °F 29.88 in SSW 7.0 mph 16.0 mph 84% 0.42 in
09:35 65.2 °F 59.9 °F 29.88 in SSW 9.0 mph 15.0 mph 83% 0.42 in
09:40 65.3 °F 60.0 °F 29.88 in SSW 8.0 mph 15.0 mph 83% 0.42 in
09:45 65.4 °F 60.1 °F 29.88 in SSW 7.0 mph 15.0 mph 83% 0.42 in
09:50 65.1 °F 59.8 °F 29.88 in SSW 7.0 mph 15.0 mph 83% 0.42 in
09:55 65.1 °F 59.8 °F 29.88 in SSW 7.0 mph 14.0 mph 83% 0.42 in
10:00 65.5 °F 60.5 °F 29.88 in South 5.0 mph 12.0 mph 84% 0.42 in
10:05 66.0 °F 60.7 °F 29.88 in South 4.0 mph 11.0 mph 83% 0.42 in
10:10 66.4 °F 60.7 °F 29.88 in South 6.0 mph 14.0 mph 82% 0.42 in
10:15 67.0 °F 61.0 °F 29.88 in SSW 7.0 mph 14.0 mph 81% 0.42 in
10:25 67.4 °F 61.4 °F 29.88 in South 5.0 mph 15.0 mph 81% 0.42 in
10:35 68.1 °F 61.3 °F 29.89 in SSW 6.0 mph 13.0 mph 79% 0.42 in
10:40 68.5 °F 61.4 °F 29.88 in SSW 6.0 mph 13.0 mph 78% 0.42 in
10:45 68.5 °F 61.0 °F 29.88 in SSW 8.0 mph 12.0 mph 77% 0.42 in
10:55 69.4 °F 61.5 °F 29.87 in SSW 6.0 mph 13.0 mph 76% 0.42 in
11:00 69.7 °F 61.4 °F 29.87 in SSW 8.0 mph 17.0 mph 75% 0.42 in
11:05 69.5 °F 61.2 °F 29.87 in SSW 6.0 mph 19.0 mph 75% 0.42 in
11:10 69.8 °F 61.5 °F 29.86 in SSW 5.0 mph 19.0 mph 75% 0.42 in
11:15 69.7 °F 61.4 °F 29.86 in SW 8.0 mph 17.0 mph 75% 0.42 in
11:20 69.8 °F 61.1 °F 29.87 in SSW 9.0 mph 14.0 mph 74% 0.42 in
11:25 70.3 °F 62.0 °F 29.87 in SW 5.0 mph 13.0 mph 75% 0.42 in
11:30 70.4 °F 61.3 °F 29.86 in SSW 8.0 mph 14.0 mph 73% 0.42 in
11:35 70.5 °F 61.4 °F 29.86 in SW 6.0 mph 14.0 mph 73% 0.42 in
11:40 70.8 °F 61.3 °F 29.86 in South 8.0 mph 14.0 mph 72% 0.42 in
11:45 70.9 °F 61.8 °F 29.86 in SW 8.0 mph 15.0 mph 73% 0.42 in
11:50 70.9 °F 62.2 °F 29.85 in SW 6.0 mph 15.0 mph 74% 0.42 in
11:55 71.5 °F 62.0 °F 29.85 in WSW 6.0 mph 11.0 mph 72% 0.42 in
12:00 72.2 °F 62.3 °F 29.85 in SW 6.0 mph 11.0 mph 71% 0.42 in
12:05 72.2 °F 62.3 °F 29.85 in South 7.0 mph 12.0 mph 71% 0.42 in
12:10 72.4 °F 62.1 °F 29.85 in SSW 4.0 mph 14.0 mph 70% 0.42 in
12:15 72.5 °F 62.2 °F 29.84 in SW 3.0 mph 14.0 mph 70% 0.42 in
12:20 73.1 °F 62.3 °F 29.84 in SW 4.0 mph 11.0 mph 69% 0.42 in
12:25 73.3 °F 62.1 °F 29.84 in SW 5.0 mph 10.0 mph 68% 0.42 in
12:30 73.2 °F 62.4 °F 29.84 in SW 3.0 mph 10.0 mph 69% 0.42 in
12:35 73.7 °F 62.1 °F 29.84 in SSW 2.0 mph 10.0 mph 67% 0.42 in
12:40 74.6 °F 62.5 °F 29.84 in SSW 4.0 mph 10.0 mph 66% 0.42 in
12:45 74.8 °F 63.1 °F 29.84 in SSW 2.0 mph 9.0 mph 67% 0.42 in
12:50 74.5 °F 62.4 °F 29.84 in SW 5.0 mph 10.0 mph 66% 0.42 in
12:55 73.8 °F 61.7 °F 29.83 in SSW 1.0 mph 10.0 mph 66% 0.42 in
13:00 73.4 °F 61.8 °F 29.83 in South 1.0 mph 10.0 mph 67% 0.42 in
13:05 73.2 °F 61.6 °F 29.83 in SW 3.0 mph 10.0 mph 67% 0.42 in
13:10 73.6 °F 62.4 °F 29.83 in SSW 3.0 mph 8.0 mph 68% 0.42 in
13:15 74.6 °F 62.5 °F 29.83 in SSW 5.0 mph 8.0 mph 66% 0.42 in
13:20 75.2 °F 62.6 °F 29.83 in South 4.0 mph 9.0 mph 65% 0.42 in
13:25 74.5 °F 62.4 °F 29.83 in SSW 2.0 mph 9.0 mph 66% 0.42 in
13:30 74.6 °F 62.5 °F 29.83 in SSW 2.0 mph 8.0 mph 66% 0.42 in
13:35 75.5 °F 62.9 °F 29.82 in SW 2.0 mph 8.0 mph 65% 0.42 in
13:45 74.9 °F 63.2 °F 29.82 in SSW 1.0 mph 11.0 mph 67% 0.42 in
13:50 75.7 °F 62.2 °F 29.82 in SSW 5.0 mph 9.0 mph 63% 0.42 in
13:55 76.1 °F 63.1 °F 29.82 in SSW 3.0 mph 12.0 mph 64% 0.42 in
14:00 76.2 °F 63.6 °F 29.82 in South 2.0 mph 12.0 mph 65% 0.42 in
14:05 77.1 °F 63.1 °F 29.81 in South 2.0 mph 9.0 mph 62% 0.42 in
14:15 78.0 °F 63.5 °F 29.81 in WSW 5.0 mph 14.0 mph 61% 0.42 in
14:20 78.7 °F 63.7 °F 29.81 in SW 6.0 mph 15.0 mph 60% 0.42 in
14:25 78.9 °F 63.4 °F 29.81 in SSW 6.0 mph 15.0 mph 59% 0.42 in
14:30 78.5 °F 63.0 °F 29.80 in SSW 6.0 mph 12.0 mph 59% 0.42 in
14:35 78.3 °F 62.3 °F 29.80 in SSW 7.0 mph 12.0 mph 58% 0.42 in
14:40 78.2 °F 62.7 °F 29.80 in SSW 5.0 mph 16.0 mph 59% 0.42 in
14:45 77.5 °F 62.1 °F 29.80 in SSW 9.0 mph 18.0 mph 59% 0.42 in
14:50 77.6 °F 62.2 °F 29.79 in SSW 9.0 mph 18.0 mph 59% 0.42 in
15:00 77.6 °F 62.6 °F 29.79 in WSW 7.0 mph 15.0 mph 60% 0.42 in
15:05 77.1 °F 63.1 °F 29.79 in SW 6.0 mph 15.0 mph 62% 0.42 in
15:10 77.4 °F 62.4 °F 29.78 in SW 8.0 mph 15.0 mph 60% 0.42 in
15:15 77.7 °F 63.2 °F 29.77 in SW 8.0 mph 16.0 mph 61% 0.42 in
15:20 77.9 °F 63.8 °F 29.77 in SW 7.0 mph 16.0 mph 62% 0.42 in
15:25 78.5 °F 63.9 °F 29.77 in SW 4.0 mph 15.0 mph 61% 0.42 in
15:30 78.7 °F 63.7 °F 29.77 in SW 11.0 mph 18.0 mph 60% 0.42 in
15:35 78.7 °F 64.1 °F 29.76 in SW 8.0 mph 18.0 mph 61% 0.42 in
15:40 79.3 °F 63.7 °F 29.76 in SSW 8.0 mph 15.0 mph 59% 0.42 in
15:45 79.3 °F 63.7 °F 29.76 in SSW 9.0 mph 17.0 mph 59% 0.42 in
15:50 79.5 °F 63.9 °F 29.76 in SW 9.0 mph 17.0 mph 59% 0.42 in
15:55 79.6 °F 64.0 °F 29.75 in SSW 6.0 mph 15.0 mph 59% 0.42 in
16:00 80.1 °F 64.0 °F 29.75 in SSW 6.0 mph 15.0 mph 58% 0.42 in
16:10 79.9 °F 63.8 °F 29.75 in SSW 11.0 mph 19.0 mph 58% 0.42 in
16:15 80.1 °F 64.5 °F 29.74 in SSW 5.0 mph 19.0 mph 59% 0.42 in
16:20 80.0 °F 63.4 °F 29.74 in South 8.0 mph 18.0 mph 57% 0.42 in
16:25 80.0 °F 62.9 °F 29.74 in SSW 8.0 mph 18.0 mph 56% 0.42 in
16:30 80.0 °F 62.4 °F 29.73 in SSW 11.0 mph 21.0 mph 55% 0.42 in
16:35 80.1 °F 62.0 °F 29.73 in SSW 12.0 mph 22.0 mph 54% 0.42 in
16:45 79.8 °F 61.7 °F 29.72 in South 8.0 mph 22.0 mph 54% 0.42 in
16:50 80.3 °F 61.1 °F 29.72 in SSW 5.0 mph 18.0 mph 52% 0.42 in
16:55 80.6 °F 61.4 °F 29.72 in SSW 7.0 mph 16.0 mph 52% 0.42 in
17:00 80.1 °F 60.4 °F 29.72 in SSW 9.0 mph 22.0 mph 51% 0.42 in
17:05 80.0 °F 60.8 °F 29.72 in SSW 10.0 mph 22.0 mph 52% 0.42 in
17:10 79.7 °F 61.1 °F 29.72 in SSW 7.0 mph 20.0 mph 53% 0.42 in
17:15 79.5 °F 60.9 °F 29.72 in SW 11.0 mph 21.0 mph 53% 0.42 in
17:20 79.5 °F 60.4 °F 29.72 in SW 13.0 mph 21.0 mph 52% 0.42 in
17:25 79.3 °F 61.2 °F 29.72 in SSW 8.0 mph 21.0 mph 54% 0.42 in
17:30 79.4 °F 61.3 °F 29.72 in SW 12.0 mph 21.0 mph 54% 0.42 in
17:35 79.2 °F 60.6 °F 29.71 in SW 11.0 mph 21.0 mph 53% 0.42 in
17:40 79.1 °F 61.1 °F 29.72 in South 7.0 mph 21.0 mph 54% 0.42 in
17:45 78.8 °F 60.8 °F 29.71 in SSW 9.0 mph 19.0 mph 54% 0.42 in
17:50 78.3 °F 60.3 °F 29.70 in SW 12.0 mph 22.0 mph 54% 0.42 in
17:55 78.1 °F 60.6 °F 29.70 in SSW 8.0 mph 22.0 mph 55% 0.42 in
18:00 78.0 °F 60.5 °F 29.70 in SSW 9.0 mph 22.0 mph 55% 0.42 in
18:05 77.6 °F 60.7 °F 29.69 in SSW 7.0 mph 22.0 mph 56% 0.42 in
18:10 77.6 °F 60.2 °F 29.69 in SSW 12.0 mph 21.0 mph 55% 0.42 in
18:15 77.8 °F 60.4 °F 29.70 in SSW 9.0 mph 21.0 mph 55% 0.42 in
18:20 77.6 °F 60.7 °F 29.69 in SSW 11.0 mph 21.0 mph 56% 0.42 in
18:25 77.4 °F 61.0 °F 29.70 in SW 7.0 mph 21.0 mph 57% 0.42 in
18:30 77.3 °F 60.9 °F 29.70 in SSW 7.0 mph 18.0 mph 57% 0.42 in
18:45 77.2 °F 60.3 °F 29.69 in SSW 7.0 mph 15.0 mph 56% 0.42 in
18:50 77.0 °F 60.1 °F 29.69 in SSW 12.0 mph 26.0 mph 56% 0.42 in
18:55 76.8 °F 60.4 °F 29.70 in SSW 8.0 mph 26.0 mph 57% 0.42 in
19:05 76.4 °F 60.6 °F 29.70 in SSW 9.0 mph 20.0 mph 58% 0.42 in
19:10 76.3 °F 60.5 °F 29.69 in SSW 6.0 mph 20.0 mph 58% 0.42 in
19:15 76.0 °F 60.7 °F 29.69 in SSW 8.0 mph 17.0 mph 59% 0.42 in
19:20 75.8 °F 60.5 °F 29.69 in SSW 5.0 mph 17.0 mph 59% 0.42 in
19:25 75.5 °F 60.7 °F 29.68 in SSW 11.0 mph 17.0 mph 60% 0.42 in
19:30 75.3 °F 60.5 °F 29.68 in South 7.0 mph 17.0 mph 60% 0.42 in
19:35 75.1 °F 60.8 °F 29.68 in SSW 6.0 mph 15.0 mph 61% 0.42 in
19:40 74.9 °F 60.6 °F 29.67 in SW 3.0 mph 15.0 mph 61% 0.42 in
19:45 74.8 °F 60.5 °F 29.67 in SSW 7.0 mph 12.0 mph 61% 0.42 in
19:50 74.8 °F 60.5 °F 29.67 in SSW 7.0 mph 12.0 mph 61% 0.42 in
19:55 74.8 °F 60.5 °F 29.67 in South 5.0 mph 16.0 mph 61% 0.42 in
20:00 74.3 °F 60.5 °F 29.67 in South 3.0 mph 16.0 mph 62% 0.42 in
20:05 74.0 °F 60.2 °F 29.67 in SSE 2.0 mph 10.0 mph 62% 0.42 in
20:10 73.8 °F 60.4 °F 29.67 in South 3.0 mph 8.0 mph 63% 0.42 in
20:15 73.5 °F 60.6 °F 29.67 in South 3.0 mph 9.0 mph 64% 0.42 in
20:20 73.2 °F 60.3 °F 29.66 in SSW 2.0 mph 9.0 mph 64% 0.42 in
20:25 72.4 °F 60.0 °F 29.66 in SSW 2.0 mph 7.0 mph 65% 0.42 in
20:30 72.1 °F 60.6 °F 29.66 in South 3.0 mph 10.0 mph 67% 0.42 in
20:35 72.0 °F 60.5 °F 29.65 in Calm   10.0 mph 67% 0.42 in
20:40 71.5 °F 60.4 °F 29.65 in SSE 1.0 mph 7.0 mph 68% 0.42 in
20:45 71.5 °F 60.8 °F 29.64 in Calm   7.0 mph 69% 0.42 in
20:50 71.6 °F 60.9 °F 29.64 in SE 1.0 mph 8.0 mph 69% 0.42 in
20:55 71.6 °F 60.9 °F 29.64 in SSE 4.0 mph 10.0 mph 69% 0.42 in
21:00 71.6 °F 60.9 °F 29.64 in SSE 4.0 mph 10.0 mph 69% 0.42 in
21:05 71.6 °F 60.9 °F 29.63 in South 1.0 mph 7.0 mph 69% 0.42 in
21:10 71.3 °F 61.0 °F 29.63 in SSW 3.0 mph 8.0 mph 70% 0.42 in
21:15 71.6 °F 61.3 °F 29.64 in South 5.0 mph 14.0 mph 70% 0.42 in
21:20 71.6 °F 61.3 °F 29.64 in South 6.0 mph 14.0 mph 70% 0.42 in
21:25 71.6 °F 61.3 °F 29.64 in SSW 3.0 mph 12.0 mph 70% 0.42 in
21:30 71.6 °F 61.3 °F 29.64 in South 3.0 mph 10.0 mph 70% 0.42 in
21:35 71.6 °F 61.3 °F 29.65 in SSW 3.0 mph 12.0 mph 70% 0.42 in
21:40 71.7 °F 61.4 °F 29.66 in SSW 7.0 mph 16.0 mph 70% 0.42 in
21:45 71.8 °F 61.5 °F 29.65 in SSW 5.0 mph 16.0 mph 70% 0.42 in
21:50 71.9 °F 61.2 °F 29.65 in SSW 11.0 mph 17.0 mph 69% 0.42 in
21:55 72.2 °F 61.5 °F 29.64 in SSW 6.0 mph 18.0 mph 69% 0.42 in
22:00 72.0 °F 61.3 °F 29.64 in SSW 4.0 mph 18.0 mph 69% 0.42 in
22:05 71.8 °F 61.1 °F 29.64 in SSW 7.0 mph 13.0 mph 69% 0.42 in
22:10 72.0 °F 61.3 °F 29.64 in SSW 9.0 mph 21.0 mph 69% 0.42 in
22:15 72.1 °F 61.0 °F 29.64 in SSW 6.0 mph 22.0 mph 68% 0.42 in
22:20 72.1 °F 61.0 °F 29.64 in SSW 8.0 mph 22.0 mph 68% 0.42 in
22:25 72.2 °F 61.1 °F 29.64 in SSW 10.0 mph 21.0 mph 68% 0.42 in
22:30 72.2 °F 61.1 °F 29.64 in SSW 12.0 mph 21.0 mph 68% 0.42 in
22:35 72.1 °F 61.0 °F 29.64 in SW 8.0 mph 22.0 mph 68% 0.42 in
22:40 71.9 °F 61.2 °F 29.64 in South 9.0 mph 25.0 mph 69% 0.42 in
22:45 71.8 °F 61.1 °F 29.63 in SSW 10.0 mph 25.0 mph 69% 0.42 in
22:50 71.8 °F 61.1 °F 29.64 in SSW 12.0 mph 23.0 mph 69% 0.42 in
22:55 71.8 °F 61.1 °F 29.63 in SSW 8.0 mph 23.0 mph 69% 0.42 in
23:05 71.8 °F 61.5 °F 29.63 in SSW 8.0 mph 23.0 mph 70% 0.42 in
23:10 71.7 °F 61.4 °F 29.63 in SSW 12.0 mph 23.0 mph 70% 0.42 in
23:15 71.5 °F 61.6 °F 29.62 in SSW 11.0 mph 29.0 mph 71% 0.42 in
23:20 71.7 °F 61.4 °F 29.62 in SSW 8.0 mph 39.0 mph 70% 0.42 in
23:25 71.8 °F 61.5 °F 29.63 in SSW 12.0 mph 39.0 mph 70% 0.42 in
23:30 71.6 °F 61.7 °F 29.63 in SSW 10.0 mph 30.0 mph 71% 0.42 in
23:35 71.7 °F 61.8 °F 29.63 in SW 11.0 mph 22.0 mph 71% 0.42 in
23:40 71.7 °F 61.8 °F 29.63 in SSW 15.0 mph 26.0 mph 71% 0.42 in
23:45 71.8 °F 61.9 °F 29.63 in SSW 13.0 mph 26.0 mph 71% 0.42 in
23:50 71.6 °F 61.7 °F 29.63 in SSW 12.0 mph 24.0 mph 71% 0.42 in
23:55 71.5 °F 61.6 °F 29.63 in SSW 8.0 mph 21.0 mph 71% 0.42 in
Westford Weather
Compliments of Weather Underground

 
 
Current Radar Loop:

Copyright © WestfordWeather.net 2007-2014. All rights reserved.